KSAD/SAD METAR and TAF weather

Enter ICAO airport designator
Station Type Date Time Source
KSAD METAR 2022/06/28 08:51 UTC NOAA

KSAD 280851Z AUTO 15006KT 10SM BKN100 21/19 A3021 RMK AO2 SLP182 60001 T02060194 55003


Station Type Date Time Source
KSAD Decoded METAR 2022/06/28 08:51 UTC NOAA

SAFFORD MUNICIPAL AIRPORT, AZ, United States (KSAD) 32-51N 109-38W 962M
Jun 28, 2022 - 04:51 AM EDT / 2022.06.28 0851 UTC
Wind: from the SSE (150 degrees) at 7 MPH (6 KT):0
Visibility: 10 mile(s):0
Sky conditions: mostly cloudy
Temperature: 69.1 F (20.6 C)
Dew Point: 66.9 F (19.4 C)
Relative Humidity: 92%
Pressure (altimeter): 30.21 in. Hg (1023 hPa)
Pressure tendency: 0.01 inches (0.3 hPa) lower than three hours ago
ob: KSAD 280851Z AUTO 15006KT 10SM BKN100 21/19 A3021 RMK AO2 SLP182 60001 T02060194 55003
cycle: 9

Station Type Date Time Source
KSAD TAF UTC NOAA

Error!

Example: see airport list